Time;durP1;ratioP1;P1;durP2;ratioP2;P2;SDS_P1;SDS_P2;PMS_P1;PMS_P2;Temp;Humidity;BMP_temperature;BMP_pressure;BME280_temperature;BME280_humidity;BME280_pressure;Samples;Min_cycle;Max_cycle;Signal;HPM_P1;HPM_P2
2022/09/23 00:01:13;;;;;;;10.10;5.20;;;;;;;7.85;79.86;100347.81;4489996;31;33373;-76
2022/09/23 00:03:45;;;;;;;12.52;5.97;;;;;;;7.37;82.14;100341.25;4493290;31;33918;-76
2022/09/23 00:06:16;;;;;;;11.50;4.95;;;;;;;7.05;83.05;100352.87;4488397;31;34778;-76
2022/09/23 00:08:43;;;;;;;9.48;5.30;;;;;;;7.15;83.18;100349.25;4476072;32;33811;-76
2022/09/23 00:11:13;;;;;;;9.85;5.22;;;;;;;7.16;82.52;100353.59;4492284;31;33421;-76
2022/09/23 00:13:42;;;;;;;10.35;5.70;;;;;;;7.31;82.50;100346.00;4487224;31;33795;-76
2022/09/23 00:16:20;;;;;;;10.88;5.53;;;;;;;7.11;83.02;100352.41;4488619;31;34063;-76
2022/09/23 00:18:49;;;;;;;13.35;5.62;;;;;;;6.66;85.53;100346.81;4489559;31;33985;-76
2022/09/23 00:21:18;;;;;;;14.63;5.25;;;;;;;6.71;85.36;100339.38;4492755;31;33451;-76
2022/09/23 00:23:47;;;;;;;10.48;5.30;;;;;;;6.86;84.09;100340.44;4479745;31;32257;-76
2022/09/23 00:26:17;;;;;;;9.68;5.25;;;;;;;6.87;83.60;100344.78;4485670;31;33673;-77
2022/09/23 00:28:45;;;;;;;10.77;5.82;;;;;;;6.79;83.84;100337.34;4488379;31;34672;-77
2022/09/23 00:31:15;;;;;;;11.15;5.20;;;;;;;6.67;84.68;100333.13;4489216;31;33513;-76
2022/09/23 00:33:43;;;;;;;9.20;4.68;;;;;;;6.76;83.98;100335.47;4497665;31;34538;-76
2022/09/23 00:36:15;;;;;;;9.35;4.78;;;;;;;6.78;83.90;100330.38;4492768;31;33847;-76
2022/09/23 00:38:44;;;;;;;10.55;5.40;;;;;;;6.52;85.27;100328.59;4485398;31;34699;-76
2022/09/23 00:41:14;;;;;;;12.00;5.70;;;;;;;6.78;83.98;100328.72;4487226;31;33774;-76
2022/09/23 00:43:57;;;;;;;11.20;6.55;;;;;;;6.49;85.20;100334.44;4493403;31;34514;-77
2022/09/23 00:46:35;;;;;;;12.73;6.57;;;;;;;6.61;85.21;100326.69;4489451;31;33864;-76
2022/09/23 00:49:22;;;;;;;10.20;5.87;;;;;;;6.62;85.34;100324.19;4478035;31;33601;-76
2022/09/23 00:51:57;;;;;;;10.02;5.47;;;;;;;6.57;86.04;100325.56;4495630;31;34243;-76
2022/09/23 00:54:25;;;;;;;;;;;;;;;6.67;85.06;100321.94;4496109;31;34696;-76
2022/09/23 00:56:54;;;;;;;12.15;6.12;;;;;;;6.55;86.17;100315.94;4484565;31;34065;-76
2022/09/23 00:59:23;;;;;;;8.80;5.25;;;;;;;7.19;83.52;100309.13;4486151;31;33650;-76
2022/09/23 01:01:55;;;;;;;11.85;6.35;;;;;;;6.84;83.24;100315.37;4497780;31;33303;-76
2022/09/23 01:04:23;;;;;;;10.00;5.50;;;;;;;6.66;83.39;100322.72;4494225;31;34470;-76
2022/09/23 01:06:51;;;;;;;10.65;5.50;;;;;;;6.43;85.23;100319.47;4477188;31;34580;-76
2022/09/23 01:09:19;;;;;;;9.02;4.72;;;;;;;7.06;82.17;100317.69;4494099;31;34655;-77
2022/09/23 01:12:38;;;;;;;11.18;5.72;;;;;;;7.09;81.84;100320.50;4475486;31;33038;-76
2022/09/23 01:15:41;;;;;;;11.88;6.22;;;;;;;7.03;81.79;100328.69;4460872;31;33502;-76
2022/09/23 01:18:12;;;;;;;9.77;5.45;;;;;;;7.03;82.43;100320.06;4453383;32;33911;-77
2022/09/23 01:21:02;;;;;;;12.20;5.68;;;;;;;6.74;83.29;100324.16;4488093;31;33169;-77
2022/09/23 01:23:52;;;;;;;9.45;5.12;;;;;;;6.60;85.00;100320.62;4477391;31;33476;-76
2022/09/23 01:26:34;;;;;;;9.32;5.40;;;;;;;6.61;84.23;100324.09;4488757;31;34007;-77
2022/09/23 01:29:27;;;;;;;10.85;5.37;;;;;;;6.60;83.99;100319.72;4486536;31;34275;-76
2022/09/23 01:32:25;;;;;;;9.32;5.18;;;;;;;6.30;85.79;100324.56;4476334;31;33357;-76
2022/09/23 01:34:58;;;;;;;9.70;5.55;;;;;;;6.40;85.26;100328.66;4474596;31;33551;-77
2022/09/23 01:37:40;;;;;;;9.55;5.55;;;;;;;6.24;86.47;100322.44;4486803;31;33357;-77
2022/09/23 01:40:33;;;;;;;10.52;5.82;;;;;;;6.25;85.85;100315.59;4486653;31;34061;-76
2022/09/23 01:43:10;;;;;;;9.55;5.55;;;;;;;6.22;86.29;100323.09;4476805;31;33618;-76
2022/09/23 01:45:42;;;;;;;12.55;5.57;;;;;;;6.41;84.57;100323.62;4477147;32;34180;-76
2022/09/23 01:48:18;;;;;;;12.18;5.95;;;;;;;6.35;85.19;100322.28;4472745;31;34485;-77
2022/09/23 01:50:55;;;;;;;11.15;5.87;;;;;;;6.37;84.83;100320.72;4478800;31;33811;-76
2022/09/23 01:53:44;;;;;;;9.80;6.07;;;;;;;6.31;85.65;100316.03;4481598;31;35557;-76
2022/09/23 01:56:16;;;;;;;9.65;5.80;;;;;;;6.14;86.00;100312.25;4470716;31;33551;-76
2022/09/23 01:58:49;;;;;;;10.05;5.43;;;;;;;6.14;86.39;100321.66;4483330;31;33965;-77
2022/09/23 02:01:22;;;;;;;11.23;5.62;;;;;;;5.98;86.84;100314.56;4479723;31;33666;-76
2022/09/23 02:03:58;;;;;;;10.25;5.70;;;;;;;6.00;86.99;100318.13;4474098;31;34562;-76
2022/09/23 02:06:32;;;;;;;12.05;6.22;;;;;;;6.02;87.12;100312.28;4473293;31;33466;-76
2022/09/23 02:09:05;;;;;;;11.55;6.12;;;;;;;6.18;86.47;100319.44;4477046;31;34606;-77
2022/09/23 02:11:35;;;;;;;9.18;5.00;;;;;;;6.27;85.70;100320.06;4483827;31;34315;-76
2022/09/23 02:14:13;;;;;;;10.95;5.97;;;;;;;6.14;86.37;100316.53;4482310;31;33062;-78
2022/09/23 02:16:50;;;;;;;10.48;5.32;;;;;;;6.43;84.98;100321.13;4479806;32;33369;-77
2022/09/23 02:19:27;;;;;;;10.38;5.80;;;;;;;6.41;84.50;100318.47;4476439;31;34698;-77
2022/09/23 02:22:02;;;;;;;8.60;4.80;;;;;;;6.64;83.48;100314.87;4474366;31;33965;-77
2022/09/23 02:24:33;;;;;;;8.23;4.60;;;;;;;6.50;84.00;100324.25;4484053;31;34065;-78
2022/09/23 02:27:25;;;;;;;10.45;5.25;;;;;;;6.48;83.45;100318.09;4483549;31;33559;-77
2022/09/23 02:30:08;;;;;;;11.68;6.25;;;;;;;6.49;83.58;100309.59;4483845;31;33916;-77
2022/09/23 02:32:44;;;;;;;10.82;5.62;;;;;;;6.44;83.17;100313.53;4477589;31;33605;-77
2022/09/23 02:35:36;;;;;;;10.63;5.28;;;;;;;6.20;84.81;100306.66;4489662;31;33910;-77
2022/09/23 02:38:21;;;;;;;10.18;5.30;;;;;;;6.06;85.59;100313.41;4493763;31;33201;-77
2022/09/23 02:40:56;;;;;;;8.77;5.18;;;;;;;6.10;85.94;100310.25;4474661;31;33977;-78
2022/09/23 02:43:34;;;;;;;12.30;5.82;;;;;;;5.99;85.99;100316.31;4473761;32;34618;-77
2022/09/23 02:46:03;;;;;;;10.23;5.68;;;;;;;6.23;85.14;100323.22;4475101;31;34675;-77
2022/09/23 02:48:42;;;;;;;9.90;5.93;;;;;;;6.28;85.00;100311.56;4473118;32;33441;-77
2022/09/23 02:51:09;;;;;;;10.88;6.18;;;;;;;6.22;84.77;100320.53;4485487;31;33946;-78
2022/09/23 02:53:37;;;;;;;11.12;5.65;;;;;;;6.28;84.76;100321.87;4482493;32;32053;-77
2022/09/23 02:56:21;;;;;;;12.65;5.97;;;;;;;6.16;85.06;100315.88;4493798;31;33708;-77
2022/09/23 02:58:53;;;;;;;11.60;6.22;;;;;;;6.13;85.67;100314.75;4493996;31;33286;-78
2022/09/23 03:01:39;;;;;;;9.85;5.62;;;;;;;6.15;85.40;100311.50;4491156;31;33437;-78
2022/09/23 03:04:16;;;;;;;10.95;6.15;;;;;;;6.06;86.06;100319.44;4489783;31;33691;-77
2022/09/23 03:07:05;;;;;;;12.23;5.82;;;;;;;6.06;85.80;100311.72;4469513;31;33872;-78
2022/09/23 03:09:39;;;;;;;12.65;6.68;;;;;;;5.94;86.15;100310.84;4471718;32;33261;-77
2022/09/23 03:12:06;;;;;;;10.68;6.50;;;;;;;5.94;86.15;100312.50;4481791;31;33847;-77
2022/09/23 03:14:47;;;;;;;13.62;6.90;;;;;;;5.93;86.04;100315.84;4492261;31;33974;-77
2022/09/23 03:17:25;;;;;;;13.62;6.47;;;;;;;6.14;85.20;100311.37;4475699;32;34143;-77
2022/09/23 03:20:24;;;;;;;15.07;8.30;;;;;;;5.85;86.32;100315.31;4482831;31;33528;-77
2022/09/23 03:22:56;;;;;;;13.82;8.30;;;;;;;5.71;87.22;100329.75;4464307;31;33664;-77
2022/09/23 03:25:24;;;;;;;14.82;7.80;;;;;;;5.54;88.08;100320.81;4476215;32;33857;-77
2022/09/23 03:27:56;;;;;;;13.95;7.53;;;;;;;5.65;88.15;100325.06;4477212;31;33975;-78
2022/09/23 03:30:25;;;;;;;20.70;8.10;;;;;;;5.51;88.37;100321.47;4488840;31;33954;-77
2022/09/23 03:32:53;;;;;;;14.27;7.62;;;;;;;5.55;88.66;100322.59;4486793;31;33970;-77
2022/09/23 03:35:23;;;;;;;14.68;7.75;;;;;;;5.49;88.98;100322.16;4474665;31;33932;-77
2022/09/23 03:38:06;;;;;;;13.27;7.32;;;;;;;5.88;87.61;100316.44;4481851;31;34671;-77
2022/09/23 03:40:40;;;;;;;14.77;7.12;;;;;;;5.72;87.61;100317.00;4479343;31;33479;-78
2022/09/23 03:43:11;;;;;;;18.08;6.75;;;;;;;5.91;87.59;100314.09;4473442;31;34456;-77
2022/09/23 03:45:40;;;;;;;13.02;7.15;;;;;;;6.04;86.25;100310.72;4490126;31;33163;-78
2022/09/23 03:48:07;;;;;;;16.67;7.15;;;;;;;6.24;85.52;100318.97;4482205;31;34201;-77
2022/09/23 03:50:35;;;;;;;12.82;6.65;;;;;;;6.40;83.74;100320.94;4492046;31;33447;-77
2022/09/23 03:53:02;;;;;;;15.80;7.07;;;;;;;5.92;85.60;100312.41;4491127;31;33708;-77
2022/09/23 03:55:31;;;;;;;13.25;7.55;;;;;;;5.89;86.11;100314.75;4487559;31;34105;-77
2022/09/23 03:57:59;;;;;;;12.52;6.53;;;;;;;5.64;86.67;100318.13;4484823;31;34048;-77
2022/09/23 04:00:28;;;;;;;11.52;6.25;;;;;;;5.62;88.61;100318.78;4487129;31;33989;-77
2022/09/23 04:02:56;;;;;;;12.50;6.75;;;;;;;5.80;87.37;100308.97;4495716;31;33843;-77
2022/09/23 04:05:23;;;;;;;11.65;6.75;;;;;;;5.62;88.40;100317.12;4497358;31;33910;-77
2022/09/23 04:07:51;;;;;;;15.05;8.27;;;;;;;5.71;88.49;100315.22;4491167;31;34681;-77
2022/09/23 04:10:19;;;;;;;12.35;8.40;;;;;;;5.66;88.99;100316.56;4485156;31;33228;-77
2022/09/23 04:12:47;;;;;;;17.30;9.15;;;;;;;5.59;88.94;100319.47;4485841;31;33309;-77
2022/09/23 04:15:14;;;;;;;13.60;7.37;;;;;;;5.61;88.77;100328.19;4487515;31;33907;-77
2022/09/23 04:17:42;;;;;;;14.52;7.55;;;;;;;5.71;88.23;100324.59;4487926;31;33392;-77
2022/09/23 04:20:09;;;;;;;12.80;6.50;;;;;;;5.71;88.48;100317.78;4485849;31;32322;-77
2022/09/23 04:22:37;;;;;;;17.62;7.28;;;;;;;5.53;89.02;100321.59;4490806;31;34090;-77
2022/09/23 04:25:05;;;;;;;15.15;7.85;;;;;;;5.62;88.90;100317.12;4491262;31;34271;-77
2022/09/23 04:27:33;;;;;;;11.48;7.47;;;;;;;5.76;88.40;100317.25;4494103;31;34333;-77
2022/09/23 04:30:05;;;;;;;15.98;8.10;;;;;;;5.64;89.06;100315.56;4485988;31;33829;-77
2022/09/23 04:32:33;;;;;;;14.57;8.13;;;;;;;5.48;89.69;100320.38;4487469;31;33850;-77
2022/09/23 04:35:00;;;;;;;17.95;8.73;;;;;;;5.65;89.01;100316.47;4493871;31;33757;-77
2022/09/23 04:37:28;;;;;;;15.80;8.00;;;;;;;5.52;89.33;100322.37;4491057;31;34283;-77
2022/09/23 04:39:55;;;;;;;16.58;8.40;;;;;;;5.53;89.19;100321.59;4485686;31;33132;-77
2022/09/23 04:42:23;;;;;;;15.27;8.50;;;;;;;5.72;88.42;100319.59;4495840;31;33885;-76
2022/09/23 04:44:50;;;;;;;15.60;7.90;;;;;;;5.57;89.37;100331.31;4487725;31;34923;-77
2022/09/23 04:47:18;;;;;;;15.57;9.13;;;;;;;5.62;88.72;100335.13;4485609;31;33939;-77
2022/09/23 04:49:45;;;;;;;18.40;8.52;;;;;;;5.65;88.81;100335.34;4489369;31;33997;-77
2022/09/23 04:52:13;;;;;;;15.77;8.13;;;;;;;5.72;88.75;100337.56;4486667;31;34231;-77
2022/09/23 04:54:40;;;;;;;17.15;7.95;;;;;;;5.79;88.07;100335.44;4484793;31;33923;-77
2022/09/23 04:57:09;;;;;;;16.45;8.25;;;;;;;5.95;88.00;100334.84;4491016;31;34731;-77
2022/09/23 04:59:37;;;;;;;15.32;7.97;;;;;;;5.98;88.00;100330.88;4490263;31;33666;-76
2022/09/23 05:02:04;;;;;;;18.25;8.93;;;;;;;5.94;87.65;100333.97;4491442;31;33996;-77
2022/09/23 05:04:32;;;;;;;18.52;8.50;;;;;;;5.76;89.02;100343.84;4485115;31;33437;-78
2022/09/23 05:07:00;;;;;;;17.40;8.25;;;;;;;5.84;89.05;100346.97;4459321;31;33200;-77
2022/09/23 05:09:29;;;;;;;19.35;8.98;;;;;;;5.71;89.61;100355.44;4495930;31;33455;-77
2022/09/23 05:11:57;;;;;;;19.87;9.23;;;;;;;5.74;90.33;100355.69;4490493;31;33646;-77
2022/09/23 05:14:25;;;;;;;17.62;8.88;;;;;;;6.06;88.48;100358.00;4483289;31;34015;-77
2022/09/23 05:16:52;;;;;;;20.58;10.07;;;;;;;6.04;88.18;100346.72;4465059;31;32184;-76
2022/09/23 05:19:20;;;;;;;17.17;10.20;;;;;;;6.08;88.89;100353.91;4489068;31;33320;-77
2022/09/23 05:21:48;;;;;;;18.45;9.85;;;;;;;6.08;88.47;100359.06;4489871;31;34578;-78
2022/09/23 05:24:15;;;;;;;18.23;10.25;;;;;;;6.38;87.04;100359.41;4486584;31;34435;-78
2022/09/23 05:26:42;;;;;;;19.45;10.60;;;;;;;6.42;86.97;100361.41;4486537;31;33372;-77
2022/09/23 05:29:10;;;;;;;19.80;10.95;;;;;;;6.42;87.41;100361.41;4487817;31;34519;-77
2022/09/23 05:31:38;;;;;;;21.62;11.77;;;;;;;7.24;83.55;100360.16;4488541;31;34588;-77
2022/09/23 05:34:05;;;;;;;19.12;9.68;;;;;;;6.66;86.71;100366.47;4485363;31;33745;-77
2022/09/23 05:36:35;;;;;;;17.62;8.90;;;;;;;6.78;87.12;100362.19;4492528;31;34455;-77
2022/09/23 05:39:06;;;;;;;17.70;9.65;;;;;;;7.47;82.85;100363.34;4490111;31;33446;-76
2022/09/23 05:41:34;;;;;;;14.05;7.82;;;;;;;6.20;89.58;100363.25;4486373;31;34019;-76
2022/09/23 05:44:02;;;;;;;20.15;8.35;;;;;;;6.60;88.75;100372.09;4471834;31;34272;-76
2022/09/23 05:46:30;;;;;;;15.18;7.85;;;;;;;6.73;88.06;100368.69;4491283;31;34101;-76
2022/09/23 05:48:59;;;;;;;13.73;7.75;;;;;;;6.84;88.46;100365.19;4491140;31;33631;-76
2022/09/23 05:51:33;;;;;;;13.70;7.95;;;;;;;6.86;88.08;100366.19;4490672;31;34383;-76
2022/09/23 05:54:04;;;;;;;15.40;8.05;;;;;;;6.97;87.38;100366.00;4476089;31;34567;-75
2022/09/23 05:56:33;;;;;;;14.15;7.82;;;;;;;7.05;87.38;100359.69;4475716;31;34245;-76
2022/09/23 05:59:02;;;;;;;14.18;7.80;;;;;;;7.31;86.28;100360.56;4488678;31;33261;-76
2022/09/23 06:01:32;;;;;;;15.93;8.48;;;;;;;7.43;86.28;100356.22;4489550;31;34626;-76
2022/09/23 06:04:03;;;;;;;15.00;7.72;;;;;;;7.45;86.64;100359.78;4489793;31;34637;-76
2022/09/23 06:06:33;;;;;;;14.63;7.85;;;;;;;7.29;87.13;100361.34;4490736;31;33990;-76
2022/09/23 06:09:00;;;;;;;15.07;8.73;;;;;;;7.46;87.75;100364.16;4487380;31;33595;-76
2022/09/23 06:11:30;;;;;;;14.43;7.82;;;;;;;7.74;86.33;100359.09;4484835;31;33604;-76
2022/09/23 06:14:01;;;;;;;14.93;7.50;;;;;;;7.74;86.20;100358.22;4493086;31;33806;-76
2022/09/23 06:16:31;;;;;;;15.73;8.07;;;;;;;7.96;85.46;100358.81;4495321;31;33774;-76
2022/09/23 06:19:04;;;;;;;13.18;7.80;;;;;;;8.02;85.26;100356.63;4494498;31;33550;-76
2022/09/23 06:21:35;;;;;;;16.10;7.87;;;;;;;8.62;82.80;100356.94;4492455;31;33590;-75
2022/09/23 06:24:02;;;;;;;16.42;7.20;;;;;;;8.49;83.87;100356.97;4493847;31;34208;-76
2022/09/23 06:26:32;;;;;;;12.35;7.22;;;;;;;8.49;84.31;100362.13;4479144;31;34513;-76
2022/09/23 06:29:01;;;;;;;13.93;7.22;;;;;;;8.75;83.27;100359.47;4486756;31;33526;-76
2022/09/23 06:31:29;;;;;;;9.95;6.65;;;;;;;9.73;79.86;100356.56;4489424;31;33487;-76
2022/09/23 06:33:56;;;;;;;11.65;5.95;;;;;;;10.42;77.11;100355.25;4487706;31;33635;-76
2022/09/23 06:36:40;;;;;;;8.90;4.95;;;;;;;10.87;74.60;100361.94;4485513;31;33932;-75
2022/09/23 06:39:12;;;;;;;10.55;5.37;;;;;;;10.74;74.60;100358.72;4485576;31;33711;-76
2022/09/23 06:41:41;;;;;;;10.57;5.62;;;;;;;9.97;78.78;100356.19;4487273;31;34487;-76
2022/09/23 06:44:10;;;;;;;14.40;6.22;;;;;;;9.73;79.79;100364.34;4485582;32;34762;-75
2022/09/23 06:46:37;;;;;;;11.10;6.62;;;;;;;10.20;78.19;100362.66;4491561;31;33997;-76
2022/09/23 06:49:05;;;;;;;14.70;6.28;;;;;;;9.39;81.46;100371.88;4490892;31;33380;-76
2022/09/23 06:51:33;;;;;;;12.30;7.55;;;;;;;10.79;76.68;100367.59;4486186;31;33830;-76
2022/09/23 06:54:00;;;;;;;10.57;6.50;;;;;;;11.14;74.41;100370.25;4485506;32;34117;-74
2022/09/23 06:56:28;;;;;;;13.50;7.45;;;;;;;10.57;75.89;100364.69;4488040;31;33354;-75
2022/09/23 06:59:00;;;;;;;11.07;6.57;;;;;;;11.08;74.15;100365.63;4488317;31;34132;-76
2022/09/23 07:01:28;;;;;;;12.10;6.57;;;;;;;11.03;75.48;100372.31;4476145;31;33484;-76
2022/09/23 07:03:56;;;;;;;10.65;5.78;;;;;;;10.66;75.95;100369.47;4497576;31;33971;-76
2022/09/23 07:06:23;;;;;;;11.07;5.50;;;;;;;11.32;74.14;100365.09;4478793;31;34651;-76
2022/09/23 07:08:52;;;;;;;9.50;4.87;;;;;;;12.25;70.47;100355.84;4488466;31;33361;-76
2022/09/23 07:11:21;;;;;;;10.18;5.78;;;;;;;12.49;68.94;100355.19;4492680;31;33294;-76
2022/09/23 07:13:49;;;;;;;9.27;5.25;;;;;;;12.21;69.95;100364.31;4492072;31;33833;-76
2022/09/23 07:16:17;;;;;;;9.07;5.03;;;;;;;11.76;71.03;100353.47;4480359;31;33300;-76
2022/09/23 07:18:44;;;;;;;9.18;5.40;;;;;;;11.31;72.23;100368.53;4480137;31;33142;-75
2022/09/23 07:21:14;;;;;;;7.90;5.15;;;;;;;11.91;70.49;100358.53;4477146;31;34825;-76
2022/09/23 07:23:44;;;;;;;8.60;4.78;;;;;;;12.56;68.94;100362.47;4484172;31;34406;-76
2022/09/23 07:26:13;;;;;;;9.18;5.10;;;;;;;12.65;68.89;100367.19;4486665;31;34345;-76
2022/09/23 07:28:41;;;;;;;10.52;5.20;;;;;;;12.61;69.47;100368.75;4491451;31;33705;-76
2022/09/23 07:31:11;;;;;;;8.25;5.20;;;;;;;12.24;71.56;100376.56;4483418;31;33958;-76
2022/09/23 07:33:42;;;;;;;8.13;4.85;;;;;;;12.52;70.89;100366.63;4496956;31;34491;-76
2022/09/23 07:36:16;;;;;;;9.40;4.80;;;;;;;12.51;71.54;100369.16;4490718;31;34583;-76
2022/09/23 07:38:44;;;;;;;8.35;4.35;;;;;;;12.83;70.61;100370.62;4491739;31;33514;-77
2022/09/23 07:41:15;;;;;;;9.25;5.43;;;;;;;13.12;70.40;100374.50;4490739;31;33275;-76
2022/09/23 07:43:43;;;;;;;8.73;4.68;;;;;;;13.18;70.58;100366.97;4497882;31;34542;-77
2022/09/23 07:46:13;;;;;;;7.75;4.55;;;;;;;13.61;69.20;100361.84;4497492;31;32760;-76
2022/09/23 07:48:42;;;;;;;9.40;5.68;;;;;;;13.87;68.31;100368.09;4489234;31;32526;-76
2022/09/23 07:51:17;;;;;;;8.25;4.60;;;;;;;13.80;68.95;100366.09;4491198;31;33839;-76
2022/09/23 07:53:46;;;;;;;;;;;;;;;13.45;68.94;100365.53;4481334;32;32370;-77
2022/09/23 07:56:13;;;;;;;7.95;4.53;;;;;;;13.78;68.38;100360.81;4493943;31;34149;-76
2022/09/23 07:58:40;;;;;;;7.55;4.43;;;;;;;14.08;66.88;100365.47;4487813;31;34214;-76
2022/09/23 08:01:09;;;;;;;6.70;3.83;;;;;;;13.85;66.70;100367.16;4473851;31;33161;-76
2022/09/23 08:03:38;;;;;;;11.55;4.93;;;;;;;13.93;66.96;100369.25;4487131;31;33928;-76
2022/09/23 08:06:12;;;;;;;8.65;4.72;;;;;;;14.29;64.86;100370.62;4487466;31;33577;-74
2022/09/23 08:08:42;;;;;;;7.22;3.90;;;;;;;14.55;64.43;100358.59;4485949;31;33199;-77
2022/09/23 08:11:13;;;;;;;7.43;3.90;;;;;;;14.29;64.39;100371.53;4487961;31;33974;-77
2022/09/23 08:13:41;;;;;;;8.95;4.78;;;;;;;14.60;63.60;100362.28;4490217;31;34023;-74
2022/09/23 08:16:09;;;;;;;7.75;4.70;;;;;;;14.03;63.53;100365.28;4477113;31;34328;-76
2022/09/23 08:18:36;;;;;;;6.32;3.72;;;;;;;14.40;64.45;100368.44;4493491;31;33168;-77
2022/09/23 08:21:04;;;;;;;8.50;4.62;;;;;;;14.81;64.63;100356.97;4479451;31;33691;-78
2022/09/23 08:23:32;;;;;;;8.23;4.15;;;;;;;15.54;61.97;100358.66;4489782;31;33539;-77
2022/09/23 08:26:03;;;;;;;6.22;3.20;;;;;;;16.48;58.05;100358.19;4480756;31;33822;-79
2022/09/23 08:28:32;;;;;;;6.85;3.58;;;;;;;17.15;54.23;100358.34;4482754;31;33273;-78
2022/09/23 08:31:00;;;;;;;7.32;4.30;;;;;;;17.73;52.08;100348.47;4483897;31;34588;-80
2022/09/23 08:33:27;;;;;;;8.57;5.03;;;;;;;18.00;51.71;100349.19;4476318;31;34512;-79
2022/09/23 08:36:00;;;;;;;8.70;4.70;;;;;;;17.19;52.95;100352.34;4484736;31;33699;-78
2022/09/23 08:38:28;;;;;;;6.90;4.10;;;;;;;17.42;53.29;100343.38;4485579;31;33436;-78
2022/09/23 08:41:16;;;;;;;8.32;3.87;;;;;;;17.42;53.46;100346.00;4492471;31;34658;-78
2022/09/23 08:43:47;;;;;;;6.85;4.45;;;;;;;17.84;51.75;100342.69;4481723;31;34601;-77
2022/09/23 08:46:21;;;;;;;7.57;4.47;;;;;;;18.04;52.07;100345.78;4484184;32;33216;-76
2022/09/23 08:48:49;;;;;;;8.52;4.87;;;;;;;17.95;51.61;100355.19;4479334;32;33504;-76
2022/09/23 08:51:23;;;;;;;11.20;5.55;;;;;;;17.81;51.71;100347.84;4473405;31;33834;-76
2022/09/23 08:53:51;;;;;;;7.80;5.62;;;;;;;17.58;52.44;100349.00;4481596;31;34580;-77
2022/09/23 08:56:21;;;;;;;8.90;4.80;;;;;;;16.04;55.26;100357.72;4473127;31;33367;-75
2022/09/23 08:59:03;;;;;;;10.50;4.78;;;;;;;17.44;52.94;100346.91;4493042;31;32529;-77
2022/09/23 09:01:52;;;;;;;7.30;4.15;;;;;;;18.13;49.87;100352.09;4479512;31;34847;-75
2022/09/23 09:04:35;;;;;;;7.35;4.72;;;;;;;17.68;52.92;100351.00;4476610;31;34350;-77
2022/09/23 09:07:05;;;;;;;10.00;5.03;;;;;;;18.01;51.48;100344.81;4491343;31;33754;-76
2022/09/23 09:10:04;;;;;;;9.00;4.90;;;;;;;17.93;52.12;100346.41;4484456;31;34271;-76
2022/09/23 09:12:41;;;;;;;8.15;4.80;;;;;;;18.58;50.61;100344.34;4484987;31;33572;-75
2022/09/23 09:15:19;;;;;;;8.68;4.37;;;;;;;18.37;51.33;100343.88;4488381;31;34432;-76
2022/09/23 09:18:00;;;;;;;7.95;4.57;;;;;;;18.64;49.57;100343.59;4494338;31;33635;-77
2022/09/23 09:20:28;;;;;;;8.70;5.35;;;;;;;18.63;50.28;100342.69;4486772;31;32978;-77
2022/09/23 09:22:59;;;;;;;7.47;4.68;;;;;;;19.02;48.82;100340.88;4486010;31;34296;-77
2022/09/23 09:25:32;;;;;;;7.65;4.18;;;;;;;19.19;48.96;100341.19;4486410;31;33715;-77
2022/09/23 09:28:02;;;;;;;8.30;5.18;;;;;;;19.78;47.79;100337.84;4486966;31;33913;-76
2022/09/23 09:30:31;;;;;;;7.70;5.03;;;;;;;19.72;46.91;100335.09;4474676;31;33711;-78
2022/09/23 09:33:14;;;;;;;6.30;4.40;;;;;;;18.28;50.54;100340.19;4486415;31;33870;-76
2022/09/23 09:36:10;;;;;;;8.73;5.25;;;;;;;18.94;52.25;100332.84;4480433;32;34741;-78
2022/09/23 09:38:38;;;;;;;7.80;4.75;;;;;;;18.49;47.94;100331.03;4487811;31;33653;-77
2022/09/23 09:41:16;;;;;;;8.05;4.55;;;;;;;19.34;47.94;100315.19;4493110;31;33133;-73
2022/09/23 09:43:55;;;;;;;8.35;4.47;;;;;;;20.16;46.71;100322.63;4472800;32;34274;-75
2022/09/23 09:46:37;;;;;;;8.13;4.97;;;;;;;20.52;44.84;100316.09;4493226;31;33772;-77
2022/09/23 09:49:21;;;;;;;9.00;5.10;;;;;;;20.34;43.89;100322.03;4491618;31;34264;-78
2022/09/23 09:52:11;;;;;;;10.53;5.50;;;;;;;18.66;47.18;100316.53;4471935;32;33156;-77
2022/09/23 09:54:38;;;;;;;7.57;4.65;;;;;;;19.41;47.41;100319.72;4483520;31;34422;-77
2022/09/23 09:57:15;;;;;;;8.85;5.20;;;;;;;20.21;47.03;100305.19;4490171;31;34738;-77
2022/09/23 09:59:43;;;;;;;9.10;5.43;;;;;;;20.84;45.36;100310.34;4479525;31;34079;-76
2022/09/23 10:02:11;;;;;;;8.93;5.07;;;;;;;21.07;45.07;100299.19;4483010;32;33624;-78
2022/09/23 10:04:40;;;;;;;12.43;4.40;;;;;;;21.47;43.34;100294.31;4483556;31;34124;-79
2022/09/23 10:07:12;;;;;;;8.23;5.00;;;;;;;21.37;41.81;100299.47;4481319;31;33974;-79
2022/09/23 10:09:47;;;;;;;8.82;5.43;;;;;;;21.68;42.60;100297.13;4486614;31;33284;-79
2022/09/23 10:12:20;;;;;;;7.85;4.10;;;;;;;22.14;42.31;100296.53;4477691;31;32021;-80
2022/09/23 10:14:50;;;;;;;7.40;4.53;;;;;;;22.70;38.47;100295.06;4470423;32;34245;-77
2022/09/23 10:17:23;;;;;;;6.95;3.97;;;;;;;22.25;38.27;100301.91;4483348;31;34776;-77
2022/09/23 10:19:59;;;;;;;6.82;3.65;;;;;;;22.75;37.68;100295.94;4496178;31;33593;-75
2022/09/23 10:22:31;;;;;;;7.78;4.15;;;;;;;22.80;36.77;100281.00;4484600;31;32500;-79
2022/09/23 10:25:03;;;;;;;7.45;3.75;;;;;;;22.56;35.74;100295.00;4477731;31;34769;-77
2022/09/23 10:27:33;;;;;;;7.85;4.30;;;;;;;22.70;35.46;100285.38;4486973;31;33785;-78
2022/09/23 10:30:13;;;;;;;6.10;3.80;;;;;;;22.70;36.65;100289.78;4473012;32;34459;-75
2022/09/23 10:32:44;;;;;;;6.90;3.60;;;;;;;23.01;36.07;100289.84;4484627;31;34035;-77
2022/09/23 10:35:16;;;;;;;6.40;3.50;;;;;;;22.84;35.88;100297.75;4483578;31;33650;-76
2022/09/23 10:37:58;;;;;;;7.00;3.42;;;;;;;22.56;36.13;100301.19;4489095;31;34805;-76
2022/09/23 10:46:40;;;;;;;6.25;3.12;;;;;;;23.47;35.71;100276.69;4486841;31;34098;-75
2022/09/23 10:49:17;;;;;;;5.97;3.45;;;;;;;22.56;34.27;100281.78;4486875;31;34694;-75
2022/09/23 10:52:02;;;;;;;5.28;3.12;;;;;;;22.48;36.86;100275.59;4485627;31;34794;-75
2022/09/23 10:55:01;;;;;;;7.68;3.45;;;;;;;20.85;37.57;100277.91;4489744;31;33516;-74
2022/09/23 10:57:43;;;;;;;6.22;3.37;;;;;;;20.51;40.94;100282.75;4489533;31;34076;-75
2022/09/23 11:00:27;;;;;;;7.82;3.40;;;;;;;19.77;40.07;100276.50;4489679;31;33803;-74
2022/09/23 11:03:25;;;;;;;6.85;3.70;;;;;;;19.65;41.11;100276.28;4472088;32;34321;-74
2022/09/23 11:06:11;;;;;;;7.53;3.22;;;;;;;18.81;41.64;100283.59;4495550;31;33583;-75
2022/09/23 11:08:51;;;;;;;8.02;3.80;;;;;;;18.92;43.75;100281.19;4489322;31;33590;-75
2022/09/23 11:11:32;;;;;;;7.28;3.55;;;;;;;18.95;42.28;100273.34;4473338;32;33967;-73
2022/09/23 11:14:06;;;;;;;8.73;4.10;;;;;;;18.38;45.29;100277.47;4493408;31;34569;-76
2022/09/23 11:17:03;;;;;;;6.68;3.75;;;;;;;18.39;43.81;100281.88;4480468;31;32841;-75
2022/09/23 11:20:10;;;;;;;6.15;3.42;;;;;;;18.56;42.70;100267.34;4490545;31;34744;-74
2022/09/23 11:23:15;;;;;;;8.18;3.97;;;;;;;18.95;44.13;100266.38;4482710;31;33746;-75
2022/09/23 11:25:49;;;;;;;;;;;;;;;17.80;46.14;100274.41;4494313;31;34849;-75
2022/09/23 11:28:32;;;;;;;7.72;3.70;;;;;;;17.65;47.13;100262.75;4474521;31;33938;-75
2022/09/23 11:31:27;;;;;;;7.10;3.95;;;;;;;18.08;45.55;100265.47;4481379;31;33428;-74
2022/09/23 11:34:25;;;;;;;6.93;4.03;;;;;;;18.40;45.89;100266.12;4491739;31;33609;-75
2022/09/23 11:37:01;;;;;;;8.52;3.83;;;;;;;17.93;46.13;100265.16;4486709;31;34014;-74
2022/09/23 11:39:50;;;;;;;5.35;3.40;;;;;;;17.86;46.02;100254.50;4480574;31;33203;-76
2022/09/23 11:42:32;;;;;;;7.35;3.70;;;;;;;18.12;45.00;100251.59;4467507;31;33750;-76
2022/09/23 11:45:11;;;;;;;7.47;3.78;;;;;;;18.00;47.55;100249.59;4481290;31;33875;-75
2022/09/23 11:47:47;;;;;;;6.60;3.90;;;;;;;18.10;47.53;100253.28;4469807;31;34167;-76
2022/09/23 11:50:22;;;;;;;9.27;4.50;;;;;;;18.01;46.68;100242.59;4482969;31;33686;-76
2022/09/23 11:53:01;;;;;;;7.22;4.60;;;;;;;18.04;46.75;100245.25;4476075;32;34101;-76
2022/09/23 11:55:33;;;;;;;10.15;4.80;;;;;;;18.17;46.18;100244.69;4488303;31;34037;-75
2022/09/23 11:58:09;;;;;;;6.65;4.15;;;;;;;18.43;46.24;100233.87;4481619;31;34471;-76
2022/09/23 12:00:59;;;;;;;7.20;4.90;;;;;;;18.63;46.05;100235.12;4484578;32;34864;-74
2022/09/23 12:03:41;;;;;;;7.80;4.57;;;;;;;18.38;45.27;100235.50;4479560;32;34291;-75